Time;durP1;ratioP1;P1;durP2;ratioP2;P2;SDS_P1;SDS_P2;PMS_P1;PMS_P2;Temp;Humidity;BMP_temperature;BMP_pressure;BME280_temperature;BME280_humidity;BME280_pressure;Samples;Min_cycle;Max_cycle;Signal;HPM_P1;HPM_P2
2022/07/09 00:00:03;;;;;;;1.90;1.80;;;22.10;75.10;;;;;;5099240;27;20080;-59
2022/07/09 00:02:29;;;;;;;2.08;1.90;;;22.10;75.10;;;;;;5100419;27;20023;-59
2022/07/09 00:04:54;;;;;;;2.05;1.95;;;22.10;75.10;;;;;;5097390;27;20038;-60
2022/07/09 00:07:20;;;;;;;2.00;1.90;;;22.10;75.20;;;;;;5096355;28;20028;-60
2022/07/09 00:09:46;;;;;;;1.90;1.80;;;22.20;75.80;;;;;;5108524;28;20079;-60
2022/07/09 00:12:11;;;;;;;1.60;1.60;;;22.20;75.00;;;;;;5097023;28;20035;-59
2022/07/09 00:14:37;;;;;;;1.70;1.60;;;22.10;74.90;;;;;;5083289;28;20490;-60
2022/07/09 00:17:03;;;;;;;2.15;2.05;;;22.10;75.60;;;;;;5086581;28;20032;-59
2022/07/09 00:19:28;;;;;;;2.50;2.30;;;22.10;75.00;;;;;;5102530;28;20076;-60
2022/07/09 00:21:54;;;;;;;2.05;1.90;;;22.00;75.10;;;;;;5100799;28;20024;-60
2022/07/09 00:24:20;;;;;;;2.13;2.03;;;22.00;75.00;;;;;;5093797;28;20043;-60
2022/07/09 00:26:46;;;;;;;2.30;2.10;;;21.90;75.10;;;;;;5099533;27;20031;-60
2022/07/09 00:29:11;;;;;;;2.13;2.03;;;21.90;75.20;;;;;;5095671;28;20035;-60
2022/07/09 00:31:37;;;;;;;2.10;2.00;;;21.80;75.40;;;;;;5100484;28;20024;-59
2022/07/09 00:34:03;;;;;;;2.10;2.00;;;21.80;75.50;;;;;;5101199;28;20118;-59
2022/07/09 00:36:28;;;;;;;2.20;2.00;;;21.80;75.50;;;;;;5102689;28;20127;-60
2022/07/09 00:38:54;;;;;;;1.85;1.75;;;21.80;75.70;;;;;;5084708;28;20387;-59
2022/07/09 00:41:20;;;;;;;2.05;1.95;;;21.80;76.00;;;;;;5101933;28;20017;-59
2022/07/09 00:43:50;;;;;;;1.92;1.83;;;21.80;75.90;;;;;;5092854;28;20486;-59
2022/07/09 00:46:17;;;;;;;2.08;1.90;;;21.80;75.80;;;;;;5096364;28;20088;-59
2022/07/09 00:48:42;;;;;;;2.20;2.03;;;21.70;75.80;;;;;;5105050;28;20048;-59
2022/07/09 00:51:11;;;;;;;2.58;2.38;;;21.70;75.90;;;;;;5113051;28;20529;-59
2022/07/09 00:53:37;;;;;;;2.60;2.30;;;21.70;76.00;;;;;;5100472;28;20114;-60
2022/07/09 00:56:04;;;;;;;2.75;2.45;;;21.60;76.00;;;;;;5103337;28;20020;-59
2022/07/09 00:58:30;;;;;;;3.15;2.40;;;21.60;76.10;;;;;;5097416;28;20106;-59
2022/07/09 01:00:56;;;;;;;2.40;2.15;;;21.60;76.20;;;;;;5094184;28;20484;-59
2022/07/09 01:03:22;;;;;;;2.40;2.20;;;21.50;76.10;;;;;;5106563;28;20026;-59
2022/07/09 01:05:49;;;;;;;2.17;2.00;;;21.50;76.10;;;;;;5101828;28;20015;-59
2022/07/09 01:08:15;;;;;;;2.30;2.10;;;21.40;76.10;;;;;;5095064;28;20567;-59
2022/07/09 01:10:41;;;;;;;2.88;2.22;;;21.30;76.10;;;;;;5097804;28;20102;-59
2022/07/09 01:13:07;;;;;;;2.15;2.03;;;21.30;76.20;;;;;;5098663;28;20475;-59
2022/07/09 01:15:33;;;;;;;2.20;1.98;;;21.30;76.30;;;;;;5104395;28;20030;-59
2022/07/09 01:17:59;;;;;;;2.10;1.90;;;21.30;76.40;;;;;;5105236;28;20065;-59
2022/07/09 01:20:26;;;;;;;2.50;2.13;;;21.30;76.40;;;;;;5101653;28;20024;-59
2022/07/09 01:22:52;;;;;;;2.40;2.20;;;21.30;76.50;;;;;;5101232;28;20028;-59
2022/07/09 01:25:19;;;;;;;2.10;1.98;;;21.20;76.90;;;;;;5094463;28;20047;-59
2022/07/09 01:27:46;;;;;;;2.40;2.20;;;21.20;77.20;;;;;;5100228;28;20098;-59
2022/07/09 01:30:27;;;;;;;2.13;1.83;;;21.20;77.50;;;;;;5105235;28;20092;-59
2022/07/09 01:32:53;;;;;;;1.88;1.77;;;21.10;77.90;;;;;;5106992;28;20499;-59
2022/07/09 01:35:19;;;;;;;2.08;1.88;;;21.10;78.20;;;;;;5101071;28;20607;-60
2022/07/09 01:37:45;;;;;;;2.35;1.90;;;21.00;78.40;;;;;;5099228;28;20030;-59
2022/07/09 01:40:12;;;;;;;2.10;2.00;;;21.00;78.50;;;;;;5098560;28;20106;-59
2022/07/09 01:42:37;;;;;;;2.10;2.00;;;20.90;78.50;;;;;;5102987;28;20098;-59
2022/07/09 01:45:03;;;;;;;2.30;2.10;;;20.90;78.60;;;;;;5102662;27;20131;-59
2022/07/09 01:47:29;;;;;;;1.90;1.80;;;20.80;78.70;;;;;;5104962;27;20047;-59
2022/07/09 01:49:55;;;;;;;2.10;1.90;;;20.80;78.60;;;;;;5099485;28;20520;-60
2022/07/09 01:52:21;;;;;;;2.05;1.90;;;20.70;78.80;;;;;;5103402;28;20076;-60
2022/07/09 01:54:46;;;;;;;2.17;1.95;;;20.70;79.10;;;;;;5102216;27;20026;-60
2022/07/09 01:57:12;;;;;;;2.10;1.98;;;20.70;79.30;;;;;;5103267;27;20031;-59
2022/07/09 01:59:38;;;;;;;2.00;1.77;;;20.60;79.50;;;;;;5096454;28;20047;-60
2022/07/09 02:02:05;;;;;;;2.03;1.90;;;20.60;79.60;;;;;;5101519;27;20035;-59
2022/07/09 02:04:31;;;;;;;2.05;1.85;;;20.60;79.70;;;;;;5102180;27;20027;-60
2022/07/09 02:06:57;;;;;;;2.05;1.95;;;20.60;79.80;;;;;;5101941;27;20032;-60
2022/07/09 02:09:22;;;;;;;1.77;1.67;;;20.60;80.00;;;;;;5105776;27;20497;-60
2022/07/09 02:11:49;;;;;;;2.00;1.90;;;20.60;80.20;;;;;;5107057;27;20383;-60
2022/07/09 02:14:15;;;;;;;2.33;2.13;;;20.60;80.30;;;;;;5096587;28;20039;-59
2022/07/09 02:16:40;;;;;;;2.20;2.00;;;20.50;80.50;;;;;;5112238;27;20020;-60
2022/07/09 02:19:06;;;;;;;2.38;2.17;;;20.60;81.20;;;;;;5113705;27;20020;-60
2022/07/09 02:21:32;;;;;;;2.40;2.20;;;20.60;81.60;;;;;;5102351;27;20052;-60
2022/07/09 02:23:58;;;;;;;2.50;2.30;;;20.60;81.90;;;;;;5097648;27;20081;-60
2022/07/09 02:26:29;;;;;;;2.72;2.42;;;20.60;81.80;;;;;;5102542;27;20028;-60
2022/07/09 02:28:58;;;;;;;2.95;2.60;;;20.60;82.00;;;;;;5105880;27;20100;-60
2022/07/09 02:31:25;;;;;;;3.47;2.60;;;20.60;82.20;;;;;;5094502;27;23044;-60
2022/07/09 02:33:50;;;;;;;2.42;2.22;;;20.60;82.50;;;;;;5104462;27;20534;-60
2022/07/09 02:36:16;;;;;;;2.97;2.78;;;20.60;83.00;;;;;;5098399;28;20024;-60
2022/07/09 02:38:42;;;;;;;2.80;2.60;;;20.60;83.20;;;;;;5110543;27;20558;-60
2022/07/09 02:41:07;;;;;;;2.65;2.20;;;20.60;83.50;;;;;;5104151;27;20020;-60
2022/07/09 02:43:33;;;;;;;3.47;2.58;;;20.60;83.70;;;;;;5095941;28;20168;-60
2022/07/09 02:45:58;;;;;;;2.80;2.60;;;20.60;83.80;;;;;;5102142;27;20024;-60
2022/07/09 02:48:27;;;;;;;2.65;2.45;;;20.60;83.90;;;;;;5097098;27;20493;-60
2022/07/09 02:50:53;;;;;;;2.88;2.60;;;20.70;84.20;;;;;;5115475;27;20024;-59
2022/07/09 02:53:20;;;;;;;2.65;2.45;;;20.60;84.40;;;;;;5095434;28;20140;-60
2022/07/09 02:55:45;;;;;;;3.90;2.75;;;20.70;84.70;;;;;;5095448;28;20041;-60
2022/07/09 02:58:12;;;;;;;2.70;2.50;;;20.70;84.80;;;;;;5099033;28;20187;-60
2022/07/09 03:00:42;;;;;;;3.03;2.72;;;20.70;85.00;;;;;;5103899;27;20046;-60
2022/07/09 03:03:08;;;;;;;2.50;2.28;;;20.70;85.10;;;;;;5110641;28;20018;-60
2022/07/09 03:05:34;;;;;;;2.58;2.38;;;20.70;85.00;;;;;;5111155;28;20035;-60
2022/07/09 03:08:00;;;;;;;3.22;2.92;;;20.80;85.10;;;;;;5113271;27;20034;-60
2022/07/09 03:10:26;;;;;;;2.83;2.45;;;20.80;85.10;;;;;;5110915;28;20502;-60
2022/07/09 03:12:52;;;;;;;2.70;2.50;;;20.80;85.20;;;;;;5108323;28;20481;-60
2022/07/09 03:15:18;;;;;;;2.92;2.60;;;20.80;85.20;;;;;;5110547;28;20024;-60
2022/07/09 03:17:44;;;;;;;2.90;2.65;;;20.80;85.30;;;;;;5105001;27;20037;-59
2022/07/09 03:20:10;;;;;;;2.83;2.63;;;20.90;85.40;;;;;;5107162;28;20033;-60
2022/07/09 03:22:36;;;;;;;2.92;2.63;;;20.90;85.50;;;;;;5106724;27;20080;-60
2022/07/09 03:25:03;;;;;;;2.60;2.40;;;20.90;85.40;;;;;;5110074;27;20027;-60
2022/07/09 03:27:29;;;;;;;3.30;2.80;;;21.00;85.20;;;;;;5098481;28;20042;-60
2022/07/09 03:29:55;;;;;;;3.10;2.80;;;21.00;85.10;;;;;;5103812;28;20395;-60
2022/07/09 03:32:21;;;;;;;2.70;2.50;;;21.00;85.10;;;;;;5108602;28;20028;-60
2022/07/09 03:34:47;;;;;;;2.60;2.40;;;21.10;85.00;;;;;;5113231;28;20383;-60
2022/07/09 03:37:13;;;;;;;3.03;2.80;;;21.10;84.70;;;;;;5113148;27;20103;-60
2022/07/09 03:39:39;;;;;;;2.72;2.38;;;21.10;84.90;;;;;;5114127;27;20878;-60
2022/07/09 03:42:06;;;;;;;2.80;2.60;;;21.10;84.80;;;;;;5112872;28;20364;-59
2022/07/09 03:44:33;;;;;;;2.58;2.30;;;21.20;85.20;;;;;;5110507;28;20028;-60
2022/07/09 03:46:59;;;;;;;2.42;2.22;;;21.20;85.40;;;;;;5116092;27;20104;-60
2022/07/09 03:49:25;;;;;;;2.60;2.40;;;21.40;85.40;;;;;;5112665;28;20048;-60
2022/07/09 03:51:50;;;;;;;2.33;2.13;;;21.50;84.80;;;;;;5111457;28;20043;-60
2022/07/09 03:54:16;;;;;;;2.60;2.40;;;21.60;84.10;;;;;;5112743;28;20475;-59
2022/07/09 03:56:42;;;;;;;2.40;2.05;;;21.60;83.50;;;;;;5112841;28;20157;-60
2022/07/09 03:59:08;;;;;;;2.88;2.58;;;21.70;83.50;;;;;;5112983;28;20015;-60
2022/07/09 04:01:33;;;;;;;2.58;2.38;;;21.70;83.50;;;;;;5112381;27;20020;-60
2022/07/09 04:03:59;;;;;;;2.55;2.35;;;21.70;83.30;;;;;;5109169;28;20031;-60
2022/07/09 04:06:25;;;;;;;2.40;2.20;;;21.70;83.20;;;;;;5112764;28;20051;-61
2022/07/09 04:08:51;;;;;;;2.50;2.30;;;21.80;83.30;;;;;;5112890;27;20453;-60
2022/07/09 04:11:17;;;;;;;2.42;2.22;;;21.90;83.40;;;;;;5110670;28;20028;-60
2022/07/09 04:13:43;;;;;;;1.98;1.88;;;22.00;83.30;;;;;;5107581;28;20076;-60
2022/07/09 04:16:08;;;;;;;2.30;2.10;;;22.20;83.50;;;;;;5112178;28;20023;-60
2022/07/09 04:18:35;;;;;;;2.42;2.22;;;22.60;82.50;;;;;;5111934;28;20079;-60
2022/07/09 04:21:01;;;;;;;2.40;2.20;;;22.80;81.50;;;;;;5108646;28;20123;-60
2022/07/09 04:23:27;;;;;;;2.03;1.90;;;23.00;80.30;;;;;;5109490;28;20077;-60
2022/07/09 04:25:53;;;;;;;2.40;2.20;;;23.00;79.50;;;;;;5102236;28;20063;-60
2022/07/09 04:28:19;;;;;;;2.85;2.38;;;23.00;79.40;;;;;;5112530;28;20379;-60
2022/07/09 04:30:48;;;;;;;2.33;2.10;;;23.00;79.20;;;;;;5108180;27;20023;-60
2022/07/09 04:33:14;;;;;;;2.00;1.90;;;23.00;79.00;;;;;;5108222;28;20388;-60
2022/07/09 04:35:40;;;;;;;2.53;1.90;;;22.90;78.60;;;;;;5109748;28;20028;-60
2022/07/09 04:38:06;;;;;;;2.38;2.17;;;22.90;78.80;;;;;;5109225;28;20039;-60
2022/07/09 04:40:31;;;;;;;2.45;1.90;;;22.90;78.50;;;;;;5111283;28;20027;-58
2022/07/09 04:42:57;;;;;;;2.58;1.90;;;22.90;78.50;;;;;;5110177;28;20019;-60
2022/07/09 04:45:23;;;;;;;2.03;1.92;;;22.80;78.40;;;;;;5110790;28;20127;-60
2022/07/09 04:47:49;;;;;;;2.00;1.90;;;22.90;78.20;;;;;;5119638;28;20044;-60
2022/07/09 04:50:14;;;;;;;2.05;1.85;;;22.90;78.00;;;;;;5111921;28;20043;-60
2022/07/09 04:52:40;;;;;;;2.00;1.80;;;22.80;77.90;;;;;;5102207;28;20505;-60
2022/07/09 04:55:07;;;;;;;1.90;1.80;;;22.80;78.10;;;;;;5110076;28;20376;-59
2022/07/09 04:57:33;;;;;;;1.77;1.67;;;22.90;78.00;;;;;;5105560;28;20040;-60
2022/07/09 04:59:59;;;;;;;2.67;2.28;;;22.90;77.80;;;;;;5109833;28;20020;-60
2022/07/09 05:02:25;;;;;;;2.38;2.08;;;22.90;77.40;;;;;;5114905;28;20032;-60
2022/07/09 05:04:51;;;;;;;1.90;1.80;;;22.90;77.20;;;;;;5110863;28;20038;-60
2022/07/09 05:07:16;;;;;;;1.85;1.75;;;22.90;77.00;;;;;;5111761;28;20635;-60
2022/07/09 05:09:42;;;;;;;3.33;2.33;;;22.80;76.70;;;;;;5111781;28;20016;-60
2022/07/09 05:12:10;;;;;;;2.38;2.17;;;22.80;76.70;;;;;;5116192;27;20031;-60
2022/07/09 05:14:38;;;;;;;2.30;2.10;;;22.70;76.80;;;;;;5119884;27;20383;-60
2022/07/09 05:17:05;;;;;;;1.67;1.58;;;22.70;76.80;;;;;;5108121;28;20012;-60
2022/07/09 05:19:31;;;;;;;2.35;2.15;;;22.70;76.80;;;;;;5113040;28;20375;-60
2022/07/09 05:21:57;;;;;;;2.20;2.00;;;22.70;76.70;;;;;;5108433;28;20114;-60
2022/07/09 05:24:23;;;;;;;2.35;2.15;;;22.70;76.40;;;;;;5106485;27;20483;-60
2022/07/09 05:26:49;;;;;;;2.38;2.17;;;22.60;76.40;;;;;;5114213;28;20027;-60
2022/07/09 05:29:16;;;;;;;2.20;2.10;;;22.60;76.30;;;;;;5115845;27;20031;-60
2022/07/09 05:31:42;;;;;;;2.28;2.10;;;22.60;76.10;;;;;;5109279;27;20035;-60
2022/07/09 05:34:07;;;;;;;2.40;2.20;;;22.60;76.30;;;;;;5109963;27;20364;-60
2022/07/09 05:36:34;;;;;;;2.28;2.17;;;22.60;76.30;;;;;;5114830;28;20490;-60
2022/07/09 05:39:00;;;;;;;1.92;1.80;;;22.70;76.30;;;;;;5115635;28;20036;-60
2022/07/09 05:41:27;;;;;;;2.40;2.20;;;22.70;76.10;;;;;;5114630;28;20050;-60
2022/07/09 05:43:53;;;;;;;2.00;1.90;;;22.80;76.00;;;;;;5125331;27;20028;-59
2022/07/09 05:46:20;;;;;;;2.40;2.20;;;23.00;75.70;;;;;;5096709;28;20023;-60
2022/07/09 05:48:46;;;;;;;1.98;1.77;;;23.10;75.30;;;;;;5114748;28;20054;-60
2022/07/09 05:51:12;;;;;;;1.88;1.77;;;23.20;74.80;;;;;;5113156;27;20032;-60
2022/07/09 05:53:37;;;;;;;2.97;2.50;;;23.30;74.40;;;;;;5104053;28;20024;-60
2022/07/09 05:56:04;;;;;;;4.30;2.90;;;23.40;74.00;;;;;;5116150;27;20106;-60
2022/07/09 05:58:29;;;;;;;2.40;2.20;;;23.50;73.70;;;;;;5115368;28;20036;-60
2022/07/09 06:00:55;;;;;;;2.13;1.92;;;23.50;73.40;;;;;;5093930;28;20390;-60
2022/07/09 06:03:21;;;;;;;2.10;2.00;;;23.60;73.30;;;;;;5116988;27;20016;-60
2022/07/09 06:05:46;;;;;;;2.25;2.03;;;23.60;73.30;;;;;;5116476;27;20027;-60
2022/07/09 06:08:12;;;;;;;2.15;1.95;;;23.70;73.30;;;;;;5111766;28;20112;-60
2022/07/09 06:10:37;;;;;;;1.92;1.83;;;23.70;73.00;;;;;;5089848;27;20036;-60
2022/07/09 06:13:03;;;;;;;2.28;2.08;;;23.90;73.00;;;;;;5121131;27;20039;-60
2022/07/09 06:15:29;;;;;;;2.25;2.05;;;24.00;72.70;;;;;;5105989;28;20051;-60
2022/07/09 06:17:55;;;;;;;1.80;1.70;;;24.00;72.30;;;;;;5104574;27;20028;-60
2022/07/09 06:20:21;;;;;;;2.42;1.63;;;24.10;72.00;;;;;;5116553;27;20023;-59
2022/07/09 06:22:47;;;;;;;1.33;1.33;;;24.20;71.90;;;;;;5105440;27;20024;-60
2022/07/09 06:25:13;;;;;;;1.88;1.77;;;24.20;71.50;;;;;;5103471;28;20023;-60
2022/07/09 06:27:40;;;;;;;2.00;1.90;;;24.30;71.40;;;;;;5102497;28;20085;-60
2022/07/09 06:30:06;;;;;;;2.05;1.90;;;24.30;71.10;;;;;;5108234;27;20043;-60
2022/07/09 06:32:32;;;;;;;2.33;2.13;;;24.30;70.70;;;;;;5114117;27;20483;-60
2022/07/09 06:34:57;;;;;;;1.90;1.80;;;24.30;70.60;;;;;;5107120;27;20035;-60
2022/07/09 06:37:23;;;;;;;2.20;2.00;;;24.30;70.50;;;;;;5115220;27;20479;-60
2022/07/09 06:39:50;;;;;;;2.00;1.90;;;24.30;70.60;;;;;;5113613;27;20109;-60
2022/07/09 06:42:17;;;;;;;2.22;2.05;;;24.30;70.60;;;;;;5110057;27;20036;-60
2022/07/09 06:44:44;;;;;;;1.83;1.73;;;24.30;70.50;;;;;;5103151;28;20471;-59
2022/07/09 06:47:10;;;;;;;2.30;2.10;;;24.30;70.60;;;;;;5119637;27;20031;-60
2022/07/09 06:49:36;;;;;;;2.15;2.03;;;24.30;70.70;;;;;;5116600;27;20069;-60
2022/07/09 06:52:03;;;;;;;2.53;2.30;;;24.30;70.90;;;;;;5103072;27;20662;-60
2022/07/09 06:54:29;;;;;;;2.40;2.20;;;24.30;70.90;;;;;;5098459;27;20024;-60
2022/07/09 06:56:56;;;;;;;2.40;2.20;;;24.20;71.20;;;;;;5110982;27;20070;-60
2022/07/09 06:59:22;;;;;;;2.13;2.03;;;24.20;71.30;;;;;;5102321;27;20039;-60
2022/07/09 07:01:48;;;;;;;2.53;2.33;;;24.20;71.30;;;;;;5099456;28;20032;-60
2022/07/09 07:04:14;;;;;;;2.72;2.50;;;24.20;71.60;;;;;;5101636;27;20054;-60
2022/07/09 07:06:43;;;;;;;2.63;2.40;;;24.10;71.60;;;;;;5104269;27;20055;-60
2022/07/09 07:09:09;;;;;;;2.50;2.30;;;24.00;71.50;;;;;;5105867;27;20024;-59
2022/07/09 07:11:35;;;;;;;2.83;2.60;;;24.00;71.90;;;;;;5111123;27;20093;-60
2022/07/09 07:14:01;;;;;;;2.90;2.70;;;23.90;72.10;;;;;;5099076;27;20031;-60
2022/07/09 07:16:27;;;;;;;2.90;2.63;;;23.80;72.20;;;;;;5105685;27;20098;-60
2022/07/09 07:18:53;;;;;;;2.75;2.55;;;23.80;72.40;;;;;;5110681;27;20027;-60
2022/07/09 07:21:19;;;;;;;2.90;2.47;;;23.80;73.40;;;;;;5108970;27;20497;-59
2022/07/09 07:23:44;;;;;;;2.85;2.60;;;23.70;72.90;;;;;;5104505;27;20028;-60
2022/07/09 07:26:10;;;;;;;2.83;2.60;;;23.70;73.00;;;;;;5108254;27;20106;-60
2022/07/09 07:28:36;;;;;;;2.70;2.50;;;23.70;73.00;;;;;;5110903;27;20058;-60
2022/07/09 07:31:01;;;;;;;3.00;2.78;;;23.60;73.20;;;;;;5102978;27;20494;-60
2022/07/09 07:33:27;;;;;;;4.32;2.85;;;23.60;73.30;;;;;;5102731;27;20077;-60
2022/07/09 07:35:53;;;;;;;3.08;2.60;;;23.50;73.40;;;;;;5091447;27;20055;-60
2022/07/09 07:38:19;;;;;;;3.00;2.70;;;23.50;73.50;;;;;;5103106;27;20028;-60
2022/07/09 07:40:44;;;;;;;3.05;2.63;;;23.50;73.70;;;;;;5096409;27;20829;-60
2022/07/09 07:43:11;;;;;;;3.42;3.00;;;23.40;74.00;;;;;;5103132;27;20020;-60
2022/07/09 07:45:37;;;;;;;3.28;2.97;;;23.40;74.30;;;;;;5095620;28;20119;-60
2022/07/09 07:48:03;;;;;;;3.33;2.85;;;23.30;74.20;;;;;;5100677;27;20138;-60
2022/07/09 07:50:29;;;;;;;3.15;2.85;;;23.30;74.30;;;;;;5101691;27;20031;-60
2022/07/09 07:52:54;;;;;;;3.20;2.78;;;23.30;74.60;;;;;;5099196;27;20101;-60
2022/07/09 07:55:22;;;;;;;3.20;2.90;;;23.20;74.70;;;;;;5088718;27;20065;-60
2022/07/09 07:57:47;;;;;;;3.13;2.83;;;23.10;75.50;;;;;;5092458;27;20035;-60
2022/07/09 08:00:13;;;;;;;3.25;2.95;;;23.10;75.00;;;;;;5093978;27;20536;-60
2022/07/09 08:02:39;;;;;;;2.92;2.72;;;23.10;74.60;;;;;;5093501;27;20031;-60
2022/07/09 08:05:06;;;;;;;2.70;2.50;;;23.10;74.70;;;;;;5079221;28;20520;-60
2022/07/09 08:07:32;;;;;;;2.60;2.40;;;23.10;74.30;;;;;;5098814;27;20119;-60
2022/07/09 08:09:58;;;;;;;2.30;2.10;;;23.10;73.90;;;;;;5102672;27;20462;-60
2022/07/09 08:12:23;;;;;;;2.80;2.50;;;23.20;73.80;;;;;;5099029;27;20040;-60
2022/07/09 08:14:49;;;;;;;2.30;2.10;;;23.30;73.50;;;;;;5093175;28;20049;-59
2022/07/09 08:17:14;;;;;;;2.75;2.50;;;23.40;73.10;;;;;;5097634;28;20118;-60
2022/07/09 08:19:40;;;;;;;3.35;2.55;;;23.40;73.10;;;;;;5098844;27;20491;-59
2022/07/09 08:22:05;;;;;;;2.60;2.40;;;23.50;72.90;;;;;;5102152;27;20030;-59
2022/07/09 08:24:31;;;;;;;2.60;2.40;;;23.60;72.90;;;;;;5097003;28;20036;-59
2022/07/09 08:26:58;;;;;;;3.42;2.40;;;23.70;72.80;;;;;;5097495;27;20689;-60
2022/07/09 08:29:24;;;;;;;2.30;2.20;;;23.80;72.70;;;;;;5094694;28;20374;-60
2022/07/09 08:31:50;;;;;;;2.97;2.67;;;23.80;72.50;;;;;;5099667;27;20055;-60
2022/07/09 08:34:17;;;;;;;2.58;2.38;;;23.90;72.10;;;;;;5101465;27;20063;-60
2022/07/09 08:36:42;;;;;;;2.35;2.15;;;23.90;71.80;;;;;;5103351;27;20070;-60
2022/07/09 08:39:08;;;;;;;2.42;2.22;;;23.90;71.40;;;;;;5107067;28;20059;-60
2022/07/09 08:41:34;;;;;;;2.40;2.20;;;24.00;71.50;;;;;;5103591;28;20073;-60
2022/07/09 08:44:04;;;;;;;2.40;2.20;;;24.00;71.30;;;;;;5099853;28;20494;-60
2022/07/09 08:46:33;;;;;;;;;;;24.00;71.20;;;;;;5098208;27;20038;-59
2022/07/09 08:48:59;;;;;;;1.90;1.80;;;24.00;71.10;;;;;;5107703;27;20010;-59
2022/07/09 08:51:25;;;;;;;2.40;2.20;;;24.00;71.30;;;;;;5107063;27;20027;-60
2022/07/09 08:53:54;;;;;;;2.63;2.42;;;24.10;71.10;;;;;;5108155;27;20050;-59
2022/07/09 08:56:20;;;;;;;2.95;2.63;;;24.20;70.70;;;;;;5100655;27;20020;-59
2022/07/09 08:58:46;;;;;;;2.20;2.10;;;24.30;70.40;;;;;;5102288;27;20023;-59
2022/07/09 09:01:17;;;;;;;2.58;2.35;;;24.30;70.00;;;;;;5106614;27;20031;-60
2022/07/09 09:03:43;;;;;;;2.53;2.33;;;24.40;70.00;;;;;;5108954;27;20426;-60
2022/07/09 09:06:10;;;;;;;2.50;2.30;;;24.50;69.70;;;;;;5104743;27;20085;-60
2022/07/09 09:08:41;;;;;;;2.15;1.95;;;24.60;69.50;;;;;;5099265;27;20082;-60
2022/07/09 09:11:15;;;;;;;2.17;1.98;;;24.70;69.90;;;;;;5095897;27;20365;-60
2022/07/09 09:13:42;;;;;;;2.88;2.22;;;24.80;68.90;;;;;;5097307;28;20024;-60
2022/07/09 09:16:09;;;;;;;2.15;1.95;;;24.90;68.60;;;;;;5105789;27;20085;-60
2022/07/09 09:18:47;;;;;;;2.30;2.10;;;24.90;68.30;;;;;;5100797;27;20020;-60
2022/07/09 09:21:14;;;;;;;2.80;2.50;;;25.00;68.30;;;;;;5103989;27;20479;-60
2022/07/09 09:23:43;;;;;;;2.30;2.10;;;25.00;68.20;;;;;;5106141;27;20043;-60
2022/07/09 09:26:17;;;;;;;2.35;2.15;;;25.00;67.80;;;;;;5102738;27;20031;-60
2022/07/09 09:28:55;;;;;;;2.38;2.17;;;25.00;67.70;;;;;;5103406;27;20020;-59
2022/07/09 09:31:35;;;;;;;2.30;2.10;;;25.00;67.50;;;;;;5097424;27;20695;-60
2022/07/09 09:34:11;;;;;;;2.50;2.30;;;25.00;67.60;;;;;;5097339;27;20741;-58
2022/07/09 09:36:41;;;;;;;2.03;1.92;;;24.90;67.40;;;;;;5097267;27;20087;-60
2022/07/09 09:39:29;;;;;;;2.50;2.30;;;24.80;67.50;;;;;;5099271;27;20161;-60
2022/07/09 09:41:59;;;;;;;2.28;2.05;;;24.80;67.90;;;;;;5094898;27;20520;-59
2022/07/09 09:44:31;;;;;;;1.95;1.80;;;24.80;67.90;;;;;;5095189;27;20438;-60
2022/07/09 09:46:58;;;;;;;2.08;1.92;;;24.80;68.00;;;;;;5099171;27;20085;-59
2022/07/09 09:49:24;;;;;;;3.08;2.28;;;24.80;67.90;;;;;;5104871;27;20039;-59
2022/07/09 09:52:10;;;;;;;1.90;1.80;;;24.80;67.60;;;;;;5103763;27;20358;-60
2022/07/09 09:54:38;;;;;;;2.50;2.30;;;24.80;67.20;;;;;;5094460;27;20031;-60
2022/07/09 09:57:09;;;;;;;2.15;1.98;;;24.80;67.10;;;;;;5098242;27;20032;-60
2022/07/09 09:59:40;;;;;;;2.38;2.15;;;24.90;67.00;;;;;;5096419;28;20027;-60
2022/07/09 10:02:09;;;;;;;2.20;2.10;;;24.90;66.50;;;;;;5102359;27;20023;-60
2022/07/09 10:04:45;;;;;;;2.42;2.22;;;24.90;66.20;;;;;;5096523;27;20027;-60
2022/07/09 10:07:12;;;;;;;2.35;2.15;;;24.90;66.00;;;;;;5100692;27;20080;-60
2022/07/09 10:09:38;;;;;;;2.08;1.90;;;25.00;66.10;;;;;;5098459;27;20031;-60
2022/07/09 10:12:04;;;;;;;2.10;2.00;;;25.00;66.30;;;;;;5099107;27;20034;-59
2022/07/09 10:14:36;;;;;;;2.80;2.15;;;25.00;65.90;;;;;;5097091;27;20372;-59
2022/07/09 10:17:15;;;;;;;2.30;2.10;;;25.00;66.00;;;;;;5100736;27;20026;-60
2022/07/09 10:19:57;;;;;;;2.00;1.83;;;25.00;65.80;;;;;;5098495;27;20108;-59
2022/07/09 10:22:35;;;;;;;2.40;2.20;;;25.00;65.50;;;;;;5095677;27;20043;-60
2022/07/09 10:25:01;;;;;;;2.20;2.10;;;25.10;65.40;;;;;;5106719;27;20024;-60
2022/07/09 10:27:27;;;;;;;2.10;2.00;;;25.10;65.40;;;;;;5102083;27;20043;-59
2022/07/09 10:29:58;;;;;;;2.03;1.92;;;25.10;65.30;;;;;;5104811;27;20036;-60
2022/07/09 10:32:28;;;;;;;2.65;2.30;;;25.20;65.30;;;;;;5099567;27;20440;-60
2022/07/09 10:34:56;;;;;;;2.10;2.00;;;25.20;65.20;;;;;;5105079;27;20118;-59
2022/07/09 10:37:40;;;;;;;2.40;2.20;;;25.20;65.30;;;;;;5104509;27;20031;-60
2022/07/09 10:40:13;;;;;;;2.10;2.00;;;25.30;65.40;;;;;;5101322;27;20020;-60
2022/07/09 10:42:41;;;;;;;2.00;1.90;;;25.30;65.10;;;;;;5099041;28;20073;-59
2022/07/09 10:45:22;;;;;;;2.30;2.10;;;25.40;64.80;;;;;;5103145;27;20032;-60
2022/07/09 10:48:00;;;;;;;2.45;2.25;;;25.40;65.00;;;;;;5096329;28;20035;-60
2022/07/09 10:50:27;;;;;;;2.50;2.30;;;25.40;65.00;;;;;;5100488;27;20035;-60
2022/07/09 10:52:53;;;;;;;2.60;2.40;;;25.50;64.90;;;;;;5100599;27;20032;-60
2022/07/09 10:55:21;;;;;;;2.00;1.90;;;25.50;64.50;;;;;;5096438;27;20024;-60
2022/07/09 10:57:47;;;;;;;2.35;2.20;;;25.50;64.10;;;;;;5101569;27;20440;-60
2022/07/09 11:00:19;;;;;;;3.78;2.30;;;25.50;64.00;;;;;;5104699;27;20114;-60
2022/07/09 11:02:52;;;;;;;4.82;2.33;;;25.50;64.60;;;;;;5106063;27;20020;-60
2022/07/09 11:05:18;;;;;;;2.35;2.15;;;25.60;64.10;;;;;;5098345;27;20040;-59
2022/07/09 11:07:57;;;;;;;2.08;1.92;;;25.60;64.10;;;;;;5093095;27;20570;-60
2022/07/09 11:10:23;;;;;;;2.40;2.20;;;25.60;63.90;;;;;;5097934;28;20028;-60
2022/07/09 11:12:49;;;;;;;2.40;2.20;;;25.70;63.90;;;;;;5099815;27;20074;-60
2022/07/09 11:15:19;;;;;;;1.83;1.73;;;25.70;64.00;;;;;;5098870;27;20061;-60
2022/07/09 11:17:54;;;;;;;2.30;1.90;;;25.70;63.60;;;;;;5107673;27;20020;-60
2022/07/09 11:20:20;;;;;;;2.45;1.92;;;25.70;63.10;;;;;;5098481;27;20375;-60
2022/07/09 11:22:50;;;;;;;1.95;1.70;;;25.60;63.20;;;;;;5096808;27;20110;-60
2022/07/09 11:25:16;;;;;;;2.97;2.00;;;25.60;63.00;;;;;;5099871;27;20027;-60
2022/07/09 11:27:42;;;;;;;2.80;2.60;;;25.60;63.20;;;;;;5096278;27;20035;-60
2022/07/09 11:30:17;;;;;;;2.45;2.25;;;25.50;63.20;;;;;;5097253;27;20032;-60
2022/07/09 11:32:44;;;;;;;2.17;2.00;;;25.40;63.00;;;;;;5092587;27;20035;-60
2022/07/09 11:35:10;;;;;;;2.15;1.98;;;25.40;63.30;;;;;;5094147;27;20024;-59
2022/07/09 11:37:37;;;;;;;2.30;2.10;;;25.40;63.20;;;;;;5094430;27;20028;-59
2022/07/09 11:40:04;;;;;;;2.33;2.13;;;25.30;63.30;;;;;;5090384;27;20027;-59
2022/07/09 11:42:30;;;;;;;2.53;2.28;;;25.20;63.40;;;;;;5090986;28;20031;-59
2022/07/09 11:44:59;;;;;;;2.28;2.08;;;25.20;63.50;;;;;;5098399;27;20031;-60
2022/07/09 11:47:45;;;;;;;2.28;2.10;;;25.20;64.00;;;;;;5094372;28;20394;-60
2022/07/09 11:50:15;;;;;;;2.58;2.38;;;25.20;63.30;;;;;;5092442;27;20044;-60
2022/07/09 11:52:51;;;;;;;2.45;2.20;;;25.20;63.60;;;;;;5096864;27;20046;-60
2022/07/09 11:55:21;;;;;;;2.42;2.22;;;25.10;63.50;;;;;;5095475;27;20040;-60
2022/07/09 11:58:05;;;;;;;2.13;2.00;;;25.10;63.70;;;;;;5101963;28;20020;-60
2022/07/09 12:00:33;;;;;;;2.42;2.22;;;25.10;63.40;;;;;;5093683;27;20031;-60
2022/07/09 12:03:03;;;;;;;2.22;2.03;;;25.10;63.90;;;;;;5097130;28;20035;-60
2022/07/09 12:05:30;;;;;;;2.37;2.23;;;25.10;63.80;;;;;;5097569;28;20486;-60
2022/07/09 12:07:59;;;;;;;2.03;1.90;;;25.10;64.00;;;;;;5101271;28;20027;-60
2022/07/09 12:10:32;;;;;;;2.00;1.90;;;25.10;64.00;;;;;;5097571;27;20087;-60
2022/07/09 12:12:59;;;;;;;2.35;2.15;;;25.00;63.90;;;;;;5101412;27;20027;-59
2022/07/09 12:15:25;;;;;;;2.55;2.17;;;25.00;63.80;;;;;;5099936;27;20047;-60
2022/07/09 12:17:56;;;;;;;2.63;2.42;;;25.00;63.70;;;;;;5096046;28;20027;-60
2022/07/09 12:20:23;;;;;;;2.67;2.47;;;25.00;63.70;;;;;;5094968;28;20543;-60
2022/07/09 12:22:50;;;;;;;2.13;2.03;;;25.00;63.90;;;;;;5097295;28;20027;-60
2022/07/09 12:25:16;;;;;;;2.00;1.83;;;24.90;64.20;;;;;;5102661;27;20020;-59
2022/07/09 12:27:42;;;;;;;2.55;2.35;;;25.00;64.30;;;;;;5099800;27;20039;-60
2022/07/09 12:30:08;;;;;;;2.58;2.35;;;24.90;64.40;;;;;;5094006;27;20031;-60
2022/07/09 12:32:34;;;;;;;2.35;2.15;;;24.90;64.50;;;;;;5093751;28;20040;-60
2022/07/09 12:35:03;;;;;;;2.53;2.25;;;24.90;64.50;;;;;;5094517;28;20027;-60
2022/07/09 12:37:29;;;;;;;2.75;2.55;;;24.90;64.80;;;;;;5099082;27;20032;-60
2022/07/09 12:39:54;;;;;;;2.40;2.20;;;24.90;64.80;;;;;;5101833;27;20035;-60
2022/07/09 12:42:21;;;;;;;2.47;2.28;;;24.90;65.00;;;;;;5102058;28;20098;-60
2022/07/09 12:44:47;;;;;;;2.40;2.20;;;24.90;64.80;;;;;;5104224;28;20019;-59
2022/07/09 12:47:13;;;;;;;2.58;2.38;;;24.90;64.80;;;;;;5098540;28;20027;-60